Time;durP1;ratioP1;P1;durP2;ratioP2;P2;SDS_P1;SDS_P2;PMS_P1;PMS_P2;Temp;Humidity;BMP_temperature;BMP_pressure;BME280_temperature;BME280_humidity;BME280_pressure;Samples;Min_cycle;Max_cycle;Signal;HPM_P1;HPM_P2
2021/08/14 00:00:54;;;;;;;;;6.00;5.25;;;;;23.46;45.66;101544.50;5097422;27;45889;-89
2021/08/14 00:03:19;;;;;;;;;5.00;4.00;;;;;23.11;45.67;101495.69;5062204;28;45795;-91
2021/08/14 00:05:53;;;;;;;;;4.00;3.75;;;;;23.44;45.23;101556.16;5075558;28;47092;-92
2021/08/14 00:08:59;;;;;;;;;4.75;4.00;;;;;23.40;45.72;101565.53;5087593;27;46851;-92
2021/08/14 00:11:53;;;;;;;;;4.00;3.75;;;;;22.82;45.67;101471.34;5051856;28;45767;-93
2021/08/14 00:14:57;;;;;;;;;;;;;;;;;;;;;
2021/08/14 00:17:26;;;;;;;;;5.00;3.00;;;;;22.78;46.04;101486.84;5003499;28;74320;-89
2021/08/14 00:19:55;;;;;;;;;5.75;5.00;;;;;23.18;45.84;101554.69;5007409;28;47096;-91
2021/08/14 00:22:20;;;;;;;;;4.00;4.00;;;;;23.13;45.64;101547.19;4986576;28;45739;-89
2021/08/14 00:24:46;;;;;;;;;7.00;4.00;;;;;23.08;45.78;101554.88;4981424;28;45923;-90
2021/08/14 00:27:12;;;;;;;;;3.50;2.50;;;;;23.04;46.47;101548.19;4979119;28;48665;-89
2021/08/14 00:29:42;;;;;;;;;4.00;3.00;;;;;22.51;46.29;101469.28;4978969;28;47130;-90
2021/08/14 00:32:08;;;;;;;;;4.00;4.00;;;;;22.35;46.37;101457.75;4996053;28;45825;-89
2021/08/14 00:34:34;;;;;;;;;4.00;3.00;;;;;22.57;46.97;101483.81;4996638;28;45706;-90
2021/08/14 00:37:00;;;;;;;;;3.25;3.00;;;;;22.78;46.71;101534.16;4997185;28;48394;-88
2021/08/14 00:39:26;;;;;;;;;4.00;3.00;;;;;22.42;46.21;101483.63;4981219;28;47103;-91
2021/08/14 00:42:26;;;;;;;;;4.50;3.50;;;;;22.69;46.40;101530.59;4994114;28;46089;-89
2021/08/14 00:44:52;;;;;;;;;4.00;3.00;;;;;22.37;46.70;101507.31;5005552;28;46153;-89
2021/08/14 00:47:23;;;;;;;;;4.00;3.25;;;;;22.32;46.57;101515.00;4973643;28;47354;-87
2021/08/14 00:49:48;;;;;;;;;5.50;3.25;;;;;22.52;46.73;101545.75;4962285;28;46817;-90
2021/08/14 00:52:14;;;;;;;;;3.00;2.75;;;;;22.49;46.67;101542.56;5004049;28;46232;-86
2021/08/14 00:54:40;;;;;;;;;2.50;2.25;;;;;22.45;46.54;101544.75;5039037;28;45992;-89
2021/08/14 00:57:05;;;;;;;;;4.00;3.50;;;;;22.26;46.91;101520.97;5080763;27;47643;-89
2021/08/14 00:59:31;;;;;;;;;4.00;3.25;;;;;22.21;46.65;101523.31;5058964;28;47180;-87
2021/08/14 01:01:57;;;;;;;;;5.25;3.25;;;;;;;;5075982;27;46173;-88
2021/08/14 01:04:23;;;;;;;;;3.33;2.67;;;;;22.33;46.71;101540.69;5051562;28;45835;-88
2021/08/14 01:06:50;;;;;;;;;5.00;4.00;;;;;22.16;47.16;101520.28;5083347;27;47513;-89
2021/08/14 01:09:15;;;;;;;;;3.00;2.00;;;;;22.03;46.88;101504.72;5064868;28;47716;-88
2021/08/14 01:11:41;;;;;;;;;4.00;2.50;;;;;22.29;47.39;101552.72;5060365;28;45816;-89
2021/08/14 01:14:07;;;;;;;;;2.00;2.00;;;;;22.25;47.25;101548.66;5075246;28;45555;-92
2021/08/14 01:16:32;;;;;;;;;4.00;2.00;;;;;22.13;47.58;101536.63;5071984;28;46953;-90
2021/08/14 01:18:58;;;;;;;;;5.00;3.50;;;;;22.16;47.30;101546.97;5055883;28;48305;-90
2021/08/14 01:21:24;;;;;;;;;5.00;4.00;;;;;22.12;47.32;101545.63;5054129;28;45886;-89
2021/08/14 01:23:55;;;;;;;;;6.50;3.50;;;;;22.07;47.71;101543.44;5093148;27;45540;-89
2021/08/14 01:26:21;;;;;;;;;4.25;3.00;;;;;21.89;47.55;101518.66;5074078;28;46948;-89
2021/08/14 01:28:48;;;;;;;;;4.00;4.00;;;;;21.85;47.58;101506.63;5065921;28;47051;-89
2021/08/14 01:31:15;;;;;;;;;6.25;3.00;;;;;21.64;47.81;101483.03;5061632;27;45863;-88
2021/08/14 01:33:42;;;;;;;;;3.00;3.00;;;;;21.91;47.49;101527.34;5061039;28;45626;-89
2021/08/14 01:36:09;;;;;;;;;3.00;3.00;;;;;21.88;47.94;101526.81;5090708;27;47416;-87
2021/08/14 01:38:49;;;;;;;;;4.00;3.00;;;;;21.76;47.51;101515.56;5051090;28;48191;-86
2021/08/14 01:41:16;;;;;;;;;5.00;4.00;;;;;21.67;47.46;101503.19;5052381;28;45827;-86
2021/08/14 01:44:02;;;;;;;;;3.75;2.75;;;;;21.80;47.76;101521.44;5053719;28;45744;-89
2021/08/14 01:46:34;;;;;;;;;4.00;3.00;;;;;21.78;47.86;101526.94;5070047;28;47587;-89
2021/08/14 01:49:00;;;;;;;;;3.75;3.00;;;;;21.75;48.05;101522.72;5087923;27;47290;-88
2021/08/14 01:51:27;;;;;;;;;4.00;3.00;;;;;21.66;47.49;101515.69;5068555;27;46074;-87
2021/08/14 01:53:58;;;;;;;;;2.50;2.50;;;;;21.71;48.27;101524.06;5053661;28;45889;-88
2021/08/14 01:56:25;;;;;;;;;3.75;3.00;;;;;21.51;48.28;101493.28;5100290;27;47524;-91
2021/08/14 01:58:51;;;;;;;;;6.00;4.50;;;;;21.66;47.94;101529.03;5079235;27;45456;-91
2021/08/14 02:01:26;;;;;;;;;3.00;3.00;;;;;21.57;48.20;101513.16;5075257;28;45763;-90
2021/08/14 02:03:52;;;;;;;;;4.25;3.25;;;;;21.05;48.56;101430.50;5058446;27;45244;-89
2021/08/14 02:06:19;;;;;;;;;5.25;3.75;;;;;21.26;48.44;101464.81;5073233;28;47327;-89
2021/08/14 02:08:47;;;;;;;;;3.00;3.00;;;;;21.38;48.21;101487.53;5062480;28;47534;-90
2021/08/14 02:11:45;;;;;;;;;3.75;3.00;;;;;21.51;48.26;101516.44;5043571;28;45599;-91
2021/08/14 02:14:29;;;;;;;;;5.00;3.75;;;;;21.47;48.66;101515.09;5025826;28;45795;-91
2021/08/14 02:16:54;;;;;;;;;4.75;3.00;;;;;20.86;48.43;101420.03;5048085;28;47804;-90
2021/08/14 02:19:20;;;;;;;;;5.50;3.00;;;;;21.22;48.62;101476.75;5068616;28;47137;-90
2021/08/14 02:21:48;;;;;;;;;5.00;3.25;;;;;21.36;48.73;101505.53;5063026;28;45511;-90
2021/08/14 02:24:17;;;;;;;;;2.00;2.00;;;;;21.33;48.73;101498.66;5033443;28;45956;-91
2021/08/14 02:26:42;;;;;;;;;4.25;2.50;;;;;21.03;48.97;101451.13;5042931;28;47781;-91
2021/08/14 02:29:15;;;;;;;;;4.50;3.50;;;;;20.95;49.10;101449.22;5048672;28;47386;-92
2021/08/14 02:31:41;;;;;;;;;3.00;3.00;;;;;21.28;48.72;101494.78;5036681;28;46012;-90
2021/08/14 02:34:07;;;;;;;;;3.00;2.00;;;;;20.95;48.59;101451.88;5050598;28;45642;-91
2021/08/14 02:36:33;;;;;;;;;4.00;3.00;;;;;20.92;48.81;101454.03;5038497;28;46973;-92
2021/08/14 02:38:59;;;;;;;;;4.00;3.00;;;;;20.95;48.31;101451.06;5032530;28;46713;-90
2021/08/14 02:41:24;;;;;;;;;4.00;3.50;;;;;20.87;48.80;101440.34;5041049;28;45657;-91
2021/08/14 02:43:50;;;;;;;;;4.00;4.00;;;;;20.90;48.61;101438.19;5038812;28;45678;-89
2021/08/14 02:46:15;;;;;;;;;5.25;3.25;;;;;21.20;48.53;101482.25;5033191;28;47834;-89
2021/08/14 02:48:41;;;;;;;;;3.00;3.00;;;;;21.00;49.01;101438.09;5049692;28;47186;-89
2021/08/14 02:51:06;;;;;;;;;4.00;3.00;;;;;21.10;48.80;101468.16;5044403;28;45975;-87
2021/08/14 02:53:31;;;;;;;;;4.00;3.00;;;;;21.27;49.07;101491.28;5038941;28;45872;-90
2021/08/14 02:55:57;;;;;;;;;3.25;2.50;;;;;21.26;48.73;101483.47;5042681;28;47324;-90
2021/08/14 02:58:47;;;;;;;;;6.00;3.25;;;;;21.26;48.84;101481.66;5059424;28;46509;-90
2021/08/14 03:01:12;;;;;;;;;4.50;4.00;;;;;20.92;48.74;101432.72;5023954;28;45879;-90
2021/08/14 03:03:38;;;;;;;;;3.50;3.50;;;;;20.85;48.87;101415.69;5061484;28;46209;-89
2021/08/14 03:06:23;;;;;;;;;4.50;4.00;;;;;20.99;48.83;101435.59;5019615;28;47662;-90
2021/08/14 03:08:48;;;;;;;;;4.50;3.25;;;;;20.97;49.38;101433.09;5034811;28;46852;-90
2021/08/14 03:11:14;;;;;;;;;3.25;2.75;;;;;21.06;48.68;101456.13;5019007;28;45768;-91
2021/08/14 03:13:39;;;;;;;;;4.00;3.00;;;;;21.17;49.44;101479.91;5018368;28;45940;-89
2021/08/14 03:16:04;;;;;;;;;3.00;3.00;;;;;20.82;48.97;101416.00;5036806;28;48115;-87
2021/08/14 03:18:30;;;;;;;;;5.00;4.00;;;;;20.85;49.57;101418.34;5026122;28;48263;-88
2021/08/14 03:20:55;;;;;;;;;6.00;4.00;;;;;20.94;48.90;101431.56;5038181;28;45769;-88
2021/08/14 03:23:22;;;;;;;;;4.00;3.00;;;;;21.10;49.13;101468.16;5038346;28;45800;-89
2021/08/14 03:25:47;;;;;;;;;3.00;3.00;;;;;20.88;49.18;101426.03;5058723;28;48291;-88
2021/08/14 03:28:13;;;;;;;;;2.50;2.00;;;;;21.10;49.24;101472.66;5021422;28;46655;-88
2021/08/14 03:30:38;;;;;;;;;5.75;4.75;;;;;20.84;49.63;101430.00;5035656;28;45909;-91
2021/08/14 03:33:04;;;;;;;;;6.00;4.00;;;;;21.06;48.93;101465.94;5034866;28;46166;-90
2021/08/14 03:35:29;;;;;;;;;5.00;4.25;;;;;20.93;49.48;101443.25;5018113;28;47259;-89
2021/08/14 03:37:55;;;;;;;;;3.00;2.50;;;;;21.03;49.63;101453.78;5020399;28;46665;-90
2021/08/14 03:40:21;;;;;;;;;3.75;3.50;;;;;20.87;49.29;101429.69;5028190;28;45721;-90
2021/08/14 03:42:46;;;;;;;;;5.75;4.75;;;;;20.89;49.44;101446.38;5023191;28;45888;-88
2021/08/14 03:45:12;;;;;;;;;5.75;5.00;;;;;20.87;49.47;101445.69;5035981;28;47564;-88
2021/08/14 03:47:37;;;;;;;;;5.00;4.25;;;;;20.95;49.61;101443.06;5035456;28;48021;-88
2021/08/14 03:50:06;;;;;;;;;4.00;4.00;;;;;20.78;49.76;101427.97;5017474;28;45559;-89
2021/08/14 03:52:31;;;;;;;;;4.00;3.50;;;;;20.64;49.97;101412.53;5033928;28;45833;-89
2021/08/14 03:54:58;;;;;;;;;4.75;3.00;;;;;20.50;49.74;101387.31;5016999;28;47822;-87
2021/08/14 03:57:25;;;;;;;;;2.75;2.75;;;;;20.74;49.74;101426.59;5016459;28;46886;-88
2021/08/14 03:59:51;;;;;;;;;5.50;4.00;;;;;20.68;49.86;101414.72;5033256;28;45754;-88
2021/08/14 04:02:17;;;;;;;;;5.00;4.75;;;;;20.69;49.71;101420.88;5053875;28;45676;-88
2021/08/14 04:04:43;;;;;;;;;2.00;2.00;;;;;20.37;50.10;101374.38;5069621;28;47200;-88
2021/08/14 04:07:09;;;;;;;;;8.00;4.25;;;;;20.69;50.09;101419.06;5071257;28;47321;-89
2021/08/14 04:09:36;;;;;;;;;4.00;3.00;;;;;20.51;50.25;101395.13;5056930;28;45858;-86
2021/08/14 04:12:01;;;;;;;;;6.25;5.00;;;;;20.78;50.46;101443.97;5056515;28;46021;-86
2021/08/14 04:14:27;;;;;;;;;5.75;4.00;;;;;20.55;50.25;101411.63;5061776;27;46660;-87
2021/08/14 04:16:52;;;;;;;;;2.00;2.00;;;;;20.75;50.12;101441.59;5082665;27;48277;-86
2021/08/14 04:19:18;;;;;;;;;3.50;3.00;;;;;20.66;50.25;101423.88;5072542;27;45864;-85
2021/08/14 04:21:45;;;;;;;;;3.75;3.00;;;;;20.72;50.65;101440.09;5078681;28;45886;-86
2021/08/14 04:24:10;;;;;;;;;7.00;4.00;;;;;20.44;50.24;101398.56;5068547;28;47597;-87
2021/08/14 04:26:36;;;;;;;;;7.00;4.75;;;;;20.48;50.49;101403.41;5055760;28;48243;-85
2021/08/14 04:29:01;;;;;;;;;5.75;5.00;;;;;20.69;50.48;101434.19;5054103;28;45704;-87
2021/08/14 04:31:26;;;;;;;;;5.00;4.50;;;;;20.44;50.54;101396.75;5069598;28;45772;-88
2021/08/14 04:33:52;;;;;;;;;8.50;4.75;;;;;20.63;50.47;101417.00;5091063;27;48424;-88
2021/08/14 04:36:17;;;;;;;;;6.25;5.00;;;;;20.69;50.19;101424.38;5058570;28;47273;-86
2021/08/14 04:38:43;;;;;;;;;3.75;3.75;;;;;20.49;50.57;101390.94;5082454;27;45963;-89
2021/08/14 04:41:09;;;;;;;;;5.50;5.00;;;;;20.70;50.33;101425.22;5055342;28;45661;-91
2021/08/14 04:43:34;;;;;;;;;7.50;5.25;;;;;20.69;50.58;101428.88;5063288;28;47857;-90
2021/08/14 04:45:59;;;;;;;;;6.00;5.00;;;;;20.53;50.77;101394.97;5075525;27;48085;-89
2021/08/14 04:48:25;;;;;;;;;6.50;4.25;;;;;20.43;50.69;101389.75;5071237;28;45992;-88
2021/08/14 04:50:50;;;;;;;;;5.00;4.00;;;;;20.72;50.62;101423.25;5086817;27;45545;-88
2021/08/14 04:53:16;;;;;;;;;4.25;3.25;;;;;20.63;50.75;101409.03;5061420;28;48764;-88
2021/08/14 04:55:42;;;;;;;;;6.50;4.00;;;;;20.52;50.41;101387.97;5073468;27;47600;-86
2021/08/14 04:58:13;;;;;;;;;4.50;3.50;;;;;20.20;50.26;101332.59;5052773;28;45621;-87
2021/08/14 05:00:39;;;;;;;;;6.00;4.00;;;;;20.58;50.36;101387.34;5064350;28;45885;-89
2021/08/14 05:03:05;;;;;;;;;5.50;4.75;;;;;20.62;50.45;101393.22;5068695;28;47060;-87
2021/08/14 05:05:30;;;;;;;;;5.00;4.00;;;;;20.63;50.24;101400.19;5051774;28;47403;-86
2021/08/14 05:07:55;;;;;;;;;4.50;4.00;;;;;20.51;50.77;101370.34;5066728;28;45972;-87
2021/08/14 05:10:21;;;;;;;;;6.50;3.50;;;;;20.65;50.67;101390.25;5047099;28;45655;-87
2021/08/14 05:12:47;;;;;;;;;6.00;5.00;;;;;20.57;50.22;101369.69;5095067;27;48230;-86
2021/08/14 05:15:13;;;;;;;;;5.50;4.25;;;;;20.59;50.34;101383.72;5052123;28;47114;-85
2021/08/14 05:17:38;;;;;;;;;5.50;5.25;;;;;20.52;50.38;101372.81;5071280;27;45771;-87
2021/08/14 05:20:05;;;;;;;;;5.00;4.00;;;;;20.80;50.10;101404.66;5073890;27;45919;-86
2021/08/14 05:22:30;;;;;;;;;6.25;5.50;;;;;20.75;50.20;101402.47;5071772;27;45709;-86
2021/08/14 05:24:56;;;;;;;;;4.75;4.75;;;;;20.58;50.26;101367.88;5087743;27;48121;-85
2021/08/14 05:27:21;;;;;;;;;6.50;6.00;;;;;20.78;50.62;101407.47;5049015;28;45673;-86
2021/08/14 05:29:47;;;;;;;;;7.00;4.00;;;;;20.63;50.04;101379.72;5068892;27;45790;-85
2021/08/14 05:32:13;;;;;;;;;4.50;4.50;;;;;20.82;50.36;101411.53;5051291;28;46185;-86
2021/08/14 05:34:38;;;;;;;;;5.75;5.00;;;;;20.91;50.52;101431.03;5051809;28;46061;-85
2021/08/14 05:37:04;;;;;;;;;4.25;4.25;;;;;20.90;50.01;101421.38;5084821;27;45672;-86
2021/08/14 05:39:30;;;;;;;;;5.50;5.50;;;;;20.83;50.39;101423.84;5071648;28;45942;-87
2021/08/14 05:41:55;;;;;;;;;6.25;5.75;;;;;20.72;51.00;101402.78;5057181;28;46948;-89
2021/08/14 05:44:21;;;;;;;;;3.50;3.50;;;;;20.60;50.32;101388.03;5056167;28;45935;-85
2021/08/14 05:46:46;;;;;;;;;7.25;5.25;;;;;20.80;50.75;101421.47;5055188;28;45764;-83
2021/08/14 05:49:12;;;;;;;;;4.50;3.25;;;;;20.54;50.80;101380.66;5054504;28;45605;-84
2021/08/14 05:51:37;;;;;;;;;5.00;3.75;;;;;20.81;50.25;101435.63;5055660;28;46658;-86
2021/08/14 05:54:03;;;;;;;;;3.75;3.50;;;;;20.83;50.60;101439.84;5055750;28;46240;-88
2021/08/14 05:56:29;;;;;;;;;5.50;4.25;;;;;20.57;50.57;101396.31;5059017;28;45696;-88
2021/08/14 05:58:55;;;;;;;;;5.00;4.50;;;;;20.81;50.92;101447.13;5061935;28;45705;-88
2021/08/14 06:01:20;;;;;;;;;5.25;4.00;;;;;20.69;50.81;101435.03;5054097;28;45684;-88
2021/08/14 06:03:45;;;;;;;;;6.75;4.25;;;;;20.45;50.93;101392.25;5067993;28;45604;-89
2021/08/14 06:06:11;;;;;;;;;5.50;4.75;;;;;20.47;50.83;101401.75;5077513;27;45664;-90
2021/08/14 06:08:36;;;;;;;;;4.00;3.00;;;;;20.64;50.91;101428.50;5060153;28;45755;-87
2021/08/14 06:11:02;;;;;;;;;6.00;4.25;;;;;20.81;50.90;101454.28;5057742;28;47725;-89
2021/08/14 06:13:27;;;;;;;;;5.00;4.00;;;;;20.58;51.00;101418.47;5057662;28;45653;-88
2021/08/14 06:15:53;;;;;;;;;3.75;3.00;;;;;20.84;50.84;101456.63;5055390;28;45740;-86
2021/08/14 06:18:18;;;;;;;;;5.75;4.25;;;;;20.68;50.67;101427.19;5103047;27;45669;-87
2021/08/14 06:20:44;;;;;;;;;4.75;3.00;;;;;20.83;51.04;101460.31;5074856;27;45803;-88
2021/08/14 06:23:09;;;;;;;;;6.25;5.00;;;;;20.83;50.69;101465.63;5094730;27;47049;-85
2021/08/14 06:25:35;;;;;;;;;3.25;2.75;;;;;20.48;51.02;101414.06;5067337;27;45519;-88
2021/08/14 06:28:00;;;;;;;;;5.00;4.75;;;;;20.69;50.75;101439.53;5076208;28;45924;-87
2021/08/14 06:30:25;;;;;;;;;4.75;4.00;;;;;20.80;51.02;101461.44;5068100;27;46856;-87
2021/08/14 06:32:51;;;;;;;;;4.75;4.00;;;;;20.59;51.02;101420.97;5056662;28;45899;-88
2021/08/14 06:35:16;;;;;;;;;5.00;5.00;;;;;20.79;51.06;101456.25;5067925;27;45712;-88
2021/08/14 06:37:43;;;;;;;;;6.00;5.00;;;;;20.46;51.12;101397.41;5057161;28;45606;-90
2021/08/14 06:40:13;;;;;;;;;5.50;4.00;;;;;20.71;51.07;101440.22;5058831;28;45738;-86
2021/08/14 06:42:39;;;;;;;;;4.00;4.00;;;;;20.71;50.84;101434.91;5058044;28;45750;-88
2021/08/14 06:45:05;;;;;;;;;4.75;4.75;;;;;20.81;50.72;101454.28;5059910;28;45546;-89
2021/08/14 06:47:31;;;;;;;;;3.25;3.00;;;;;20.81;50.76;101455.13;5061095;28;45621;-86
2021/08/14 06:49:56;;;;;;;;;6.75;5.00;;;;;20.85;50.79;101458.31;5076317;27;46423;-87
2021/08/14 06:52:21;;;;;;;;;6.00;4.00;;;;;20.77;50.42;101447.59;5088874;27;47546;-90
2021/08/14 06:54:47;;;;;;;;;5.50;5.00;;;;;20.79;50.55;101445.59;5054689;28;45510;-87
2021/08/14 06:57:12;;;;;;;;;5.00;5.00;;;;;20.71;50.45;101438.41;5055998;28;45897;-91
2021/08/14 06:59:38;;;;;;;;;4.25;4.00;;;;;20.83;50.43;101450.50;5077320;27;45996;-92
2021/08/14 07:02:03;;;;;;;;;3.00;2.50;;;;;20.91;50.40;101457.69;5062898;27;45672;-89
2021/08/14 07:04:29;;;;;;;;;4.50;4.00;;;;;20.91;50.21;101463.84;5057268;28;45767;-91
2021/08/14 07:06:54;;;;;;;;;4.50;4.00;;;;;20.95;50.07;101465.22;5055266;28;45708;-89
2021/08/14 07:09:20;;;;;;;;;6.00;4.00;;;;;20.86;49.96;101444.84;5068637;27;45625;-91
2021/08/14 07:11:46;;;;;;;;;5.50;4.25;;;;;21.01;50.04;101458.44;5058088;28;46350;-89
2021/08/14 07:14:12;;;;;;;;;5.00;4.50;;;;;20.93;49.90;101432.56;5058636;28;45209;-90
2021/08/14 07:16:38;;;;;;;;;5.75;4.00;;;;;21.04;49.48;101455.47;5069267;28;45679;-88
2021/08/14 07:19:04;;;;;;;;;4.75;3.00;;;;;21.11;49.74;101456.50;5060898;28;45660;-89
2021/08/14 07:21:29;;;;;;;;;5.00;4.00;;;;;21.00;49.57;101431.97;5060108;28;45644;-91
2021/08/14 07:23:55;;;;;;;;;3.75;3.00;;;;;21.08;49.21;101448.00;5059009;28;45879;-93
2021/08/14 07:26:21;;;;;;;;;4.75;3.25;;;;;21.12;49.13;101450.19;5056890;28;45719;-81
2021/08/14 07:28:52;;;;;;;;;4.75;3.00;;;;;21.11;49.15;101437.00;5076298;27;47297;-81
2021/08/14 07:31:17;;;;;;;;;4.25;4.00;;;;;21.22;49.01;101450.09;5062282;27;46821;-82
2021/08/14 07:33:43;;;;;;;;;3.75;3.75;;;;;21.24;49.09;101456.97;5071137;27;45759;-80
2021/08/14 07:36:08;;;;;;;;;5.25;4.00;;;;;21.31;48.67;101452.69;5061556;27;45895;-83
2021/08/14 07:38:34;;;;;;;;;6.00;4.00;;;;;21.31;48.67;101449.16;5076413;27;47024;-83
2021/08/14 07:41:00;;;;;;;;;5.25;3.25;;;;;21.34;48.76;101456.84;5061242;28;46256;-83
2021/08/14 07:43:25;;;;;;;;;4.25;4.00;;;;;21.34;48.46;101443.50;5058195;28;46055;-83
2021/08/14 07:45:51;;;;;;;;;6.00;3.50;;;;;21.40;48.68;101448.22;5056613;28;45577;-81
2021/08/14 07:48:16;;;;;;;;;4.00;3.00;;;;;21.36;48.18;101441.53;5053766;28;46487;-81
2021/08/14 07:50:41;;;;;;;;;5.25;3.25;;;;;21.41;48.48;101441.06;5052659;28;46104;-79
2021/08/14 07:53:07;;;;;;;;;4.00;4.00;;;;;21.47;48.17;101453.75;5052696;28;45856;-79
2021/08/14 07:55:33;;;;;;;;;5.00;4.75;;;;;21.49;47.56;101444.59;5051461;28;46005;-79
2021/08/14 07:58:00;;;;;;;;;3.25;3.25;;;;;21.52;48.09;101441.63;5050874;28;46497;-81
2021/08/14 08:00:27;;;;;;;;;4.00;3.00;;;;;21.54;47.87;101436.13;5045787;28;46032;-83
2021/08/14 08:02:53;;;;;;;;;4.00;3.50;;;;;21.48;47.25;101421.59;5051885;28;45679;-81
2021/08/14 08:05:19;;;;;;;;;4.00;3.00;;;;;21.62;46.92;101446.81;5052691;28;45973;-81
2021/08/14 08:07:45;;;;;;;;;3.75;2.75;;;;;21.67;46.90;101445.34;5053166;28;45666;-82
2021/08/14 08:10:15;;;;;;;;;3.00;3.00;;;;;21.69;47.12;101440.69;5053625;28;46449;-82
2021/08/14 08:12:41;;;;;;;;;5.00;4.00;;;;;21.73;46.63;101447.38;5048811;28;45800;-85
2021/08/14 08:15:08;;;;;;;;;4.00;3.00;;;;;21.77;46.90;101434.53;5040901;28;45646;-82
2021/08/14 08:17:34;;;;;;;;;4.00;3.25;;;;;21.78;46.48;101428.22;5060311;28;46950;-83
2021/08/14 08:20:00;;;;;;;;;4.25;3.50;;;;;21.87;46.90;101439.72;5058494;27;47023;-81
2021/08/14 08:22:26;;;;;;;;;4.00;4.00;;;;;21.89;46.57;101432.41;5061907;28;45766;-80
2021/08/14 08:24:51;;;;;;;;;2.75;2.75;;;;;21.91;46.74;101431.28;5066142;28;45751;-86
2021/08/14 08:27:17;;;;;;;;;3.50;3.50;;;;;21.78;46.68;101402.38;5062872;27;45700;-82
2021/08/14 08:29:42;;;;;;;;;4.00;3.25;;;;;21.87;46.58;101410.38;5064888;28;46245;-80
2021/08/14 08:32:08;;;;;;;;;5.00;4.00;;;;;22.09;46.75;101428.50;5049628;28;46076;-81
2021/08/14 08:34:34;;;;;;;;;4.00;3.25;;;;;22.03;46.09;101416.63;5060733;28;45820;-81
2021/08/14 08:37:01;;;;;;;;;4.00;3.00;;;;;22.17;46.32;101426.69;5063561;27;46823;-82
2021/08/14 08:39:28;;;;;;;;;3.00;2.75;;;;;22.25;45.80;101427.69;5066977;28;46514;-82
2021/08/14 08:41:56;;;;;;;;;4.50;4.00;;;;;22.22;46.16;101412.84;5063474;27;45993;-83
2021/08/14 08:44:21;;;;;;;;;4.75;4.00;;;;;22.28;45.56;101417.53;5066948;28;45642;-91
2021/08/14 08:46:47;;;;;;;;;4.25;4.25;;;;;;;;5062229;28;46358;-87
2021/08/14 08:49:14;;;;;;;;;4.00;4.00;;;;;22.43;45.11;101429.22;5067041;28;46084;-87
2021/08/14 08:51:40;;;;;;;;;5.00;4.00;;;;;22.31;45.10;101397.66;5069713;28;45811;-89
2021/08/14 08:54:06;;;;;;;;;6.00;4.75;;;;;22.37;45.03;101397.00;5069783;28;45764;-91
2021/08/14 08:56:32;;;;;;;;;4.00;3.75;;;;;22.57;44.90;101417.03;5088246;27;48605;-90
2021/08/14 08:58:58;;;;;;;;;7.25;4.00;;;;;22.54;45.02;101412.88;5053528;28;48646;-89
2021/08/14 09:01:23;;;;;;;;;5.50;4.50;;;;;22.46;45.12;101371.94;5055516;28;45686;-89
2021/08/14 09:03:48;;;;;;;;;3.25;3.00;;;;;22.64;44.62;101396.66;5104898;27;45613;-93
2021/08/14 09:06:14;;;;;;;;;5.25;4.75;;;;;22.48;44.41;101357.44;5084168;27;48380;-91
2021/08/14 09:08:40;;;;;;;;;3.50;3.50;;;;;22.67;44.27;101374.13;5072345;28;48274;-92
2021/08/14 09:11:14;;;;;;;;;7.25;6.25;;;;;22.86;44.77;101397.84;5070836;27;45650;-90
2021/08/14 09:14:00;;;;;;;;;5.00;4.00;;;;;22.97;44.58;101402.84;5068069;28;45853;-92
2021/08/14 09:16:26;;;;;;;;;6.25;4.25;;;;;22.89;44.30;101379.63;5094016;27;47634;-91
2021/08/14 09:19:00;;;;;;;;;4.00;4.00;;;;;23.04;44.02;101403.84;5059379;27;46256;-92
2021/08/14 09:21:34;;;;;;;;;5.25;4.25;;;;;23.14;44.38;101403.63;5081726;28;45676;-88
2021/08/14 09:24:04;;;;;;;;;4.00;4.00;;;;;23.19;44.07;101409.28;5094396;27;45628;-91
2021/08/14 09:26:53;;;;;;;;;4.00;3.25;;;;;23.24;43.43;101405.09;5083021;27;47468;-90
2021/08/14 09:29:31;;;;;;;;;4.75;4.75;;;;;23.27;43.42;101404.75;5061001;28;48090;-89
2021/08/14 09:31:57;;;;;;;;;6.00;4.50;;;;;23.31;43.24;101399.91;5092361;27;46010;-90
2021/08/14 09:34:25;;;;;;;;;6.25;5.00;;;;;22.94;43.29;101336.38;5053645;28;45563;-90
2021/08/14 09:37:06;;;;;;;;;3.75;2.75;;;;;23.38;43.59;101395.53;5059482;28;48502;-88
2021/08/14 09:39:47;;;;;;;;;4.75;4.75;;;;;23.22;43.02;101366.16;5068188;28;48392;-87
2021/08/14 09:42:14;;;;;;;;;5.25;4.25;;;;;23.47;42.80;101399.03;5075490;28;45531;-87
2021/08/14 09:48:15;;;;;;;;;5.00;4.75;;;;;23.49;42.90;101380.97;5079942;28;46131;-89
2021/08/14 09:50:41;;;;;;;;;4.25;4.00;;;;;23.42;42.59;101370.13;5081486;27;45438;-91
2021/08/14 09:53:17;;;;;;;;;7.50;5.50;;;;;23.53;43.16;101368.94;5077207;28;45487;-90
2021/08/14 09:55:45;;;;;;;;;5.50;4.00;;;;;23.50;42.78;101361.22;5096208;27;45589;-87
2021/08/14 09:58:15;;;;;;;;;4.25;4.25;;;;;23.42;42.19;101344.19;5092658;27;47545;-92
2021/08/14 10:00:43;;;;;;;;;6.00;4.75;;;;;23.66;42.36;101379.88;5075424;28;47324;-88
2021/08/14 10:03:12;;;;;;;;;4.50;4.50;;;;;23.64;42.00;101366.69;5080409;28;45180;-88
2021/08/14 10:05:38;;;;;;;;;5.25;4.75;;;;;23.77;41.84;101372.28;5097556;27;45218;-90
2021/08/14 10:08:04;;;;;;;;;6.00;4.00;;;;;23.89;41.87;101380.75;5097047;27;47731;-89
2021/08/14 10:10:31;;;;;;;;;6.75;5.00;;;;;23.69;41.58;101339.41;5079359;28;45598;-90
2021/08/14 10:12:57;;;;;;;;;5.75;4.00;;;;;23.76;42.24;101353.72;5080455;28;45037;-91
2021/08/14 10:15:23;;;;;;;;;4.75;3.00;;;;;23.80;41.89;101341.69;5091467;27;45715;-93
2021/08/14 10:17:49;;;;;;;;;4.50;4.25;;;;;23.92;41.75;101352.78;5061664;28;47128;-92
2021/08/14 10:20:14;;;;;;;;;4.00;3.50;;;;;23.93;41.48;101338.41;5075052;28;46552;-94
2021/08/14 10:22:40;;;;;;;;;6.00;5.75;;;;;24.11;41.86;101352.34;5072307;28;45321;-90
2021/08/14 10:25:14;;;;;;;;;5.50;4.00;;;;;24.10;41.79;101347.97;5082863;27;45174;-88
2021/08/14 10:27:56;;;;;;;;;4.25;4.00;;;;;24.32;41.08;101368.59;5091018;27;47492;-93
2021/08/14 10:30:45;;;;;;;;;4.50;4.00;;;;;24.24;41.36;101337.34;5088125;28;47927;-95
2021/08/14 10:33:26;;;;;;;;;6.25;4.50;;;;;24.44;41.20;101352.94;5112753;27;45576;-93
2021/08/14 10:35:52;;;;;;;;;4.75;4.75;;;;;24.48;40.65;101355.06;5072142;28;45723;-91
2021/08/14 10:38:52;;;;;;;;;5.50;4.00;;;;;24.54;40.86;101345.47;5088906;27;47053;-86
2021/08/14 10:41:35;;;;;;;;;5.25;5.00;;;;;24.47;41.16;101325.75;5073959;28;47732;-87
2021/08/14 10:44:04;;;;;;;;;4.00;4.00;;;;;24.33;40.56;101300.63;5056963;28;46275;-86
2021/08/14 10:46:55;;;;;;;;;5.50;4.00;;;;;24.49;40.22;101311.19;5080507;28;45660;-86
2021/08/14 10:49:39;;;;;;;;;3.75;3.50;;;;;24.75;40.12;101342.91;5049186;28;48686;-92
2021/08/14 10:52:04;;;;;;;;;6.75;5.00;;;;;24.81;40.01;101341.34;5043480;28;47301;-87
2021/08/14 10:54:35;;;;;;;;;5.75;4.00;;;;;24.77;40.28;101315.94;5041717;28;45897;-93
2021/08/14 10:57:12;;;;;;;;;7.00;6.00;;;;;24.84;40.12;101317.66;5049483;28;45730;-92
2021/08/14 11:00:00;;;;;;;;;6.00;4.00;;;;;24.98;39.79;101335.66;5071983;27;47620;-91
2021/08/14 11:02:56;;;;;;;;;6.25;4.75;;;;;25.05;40.27;101327.69;4987740;28;45749;-89
2021/08/14 11:05:26;;;;;;;;;7.00;5.25;;;;;25.00;40.02;101320.19;4945397;28;46132;-94
2021/08/14 11:07:52;;;;;;;;;5.50;5.25;;;;;25.15;39.92;101327.41;4944937;28;45898;-90
2021/08/14 11:10:32;;;;;;;;;5.00;4.50;;;;;25.02;40.16;101299.41;4967226;28;46091;-88
2021/08/14 11:12:58;;;;;;;;;8.25;6.00;;;;;25.18;39.93;101310.94;4950761;28;47233;-91
2021/08/14 11:15:29;;;;;;;;;7.00;6.00;;;;;25.33;39.65;101319.78;4967752;28;45263;-89
2021/08/14 11:17:57;;;;;;;;;6.00;4.50;;;;;25.10;39.77;101278.88;4960908;28;45347;-87
2021/08/14 11:20:23;;;;;;;;;8.00;6.25;;;;;25.38;39.62;101326.25;4981598;28;47522;-91
2021/08/14 11:22:50;;;;;;;;;10.50;7.00;;;;;25.42;39.23;101327.56;4981895;28;47620;-91
2021/08/14 11:25:39;;;;;;;;;6.75;5.00;;;;;25.30;39.29;101299.56;4982815;28;45658;-90
2021/08/14 11:28:12;;;;;;;;;5.25;5.25;;;;;25.22;39.80;101278.19;4967002;28;45279;-87
2021/08/14 11:30:46;;;;;;;;;10.00;7.25;;;;;25.57;39.27;101324.88;4997991;28;47882;-92
2021/08/14 11:33:12;;;;;;;;;5.50;5.50;;;;;25.55;39.49;101302.72;4983544;28;45585;-91
2021/08/14 11:35:40;;;;;;;;;7.00;7.00;;;;;25.62;39.59;101300.16;4969532;28;45712;-91